sensor_id;sensor_type;location;lat;lon;timestamp;temperature;humidity
20400;DHT22;10359;53.596;22.520;2023-01-31T00:01:23;3.00;1.00
20400;DHT22;10359;53.596;22.520;2023-01-31T00:03:53;3.10;1.00
20400;DHT22;10359;53.596;22.520;2023-01-31T00:06:26;3.00;1.00
20400;DHT22;10359;53.596;22.520;2023-01-31T00:08:56;3.00;1.00
20400;DHT22;10359;53.596;22.520;2023-01-31T00:11:27;3.00;1.00
20400;DHT22;10359;53.596;22.520;2023-01-31T00:13:57;3.00;1.00
20400;DHT22;10359;53.596;22.520;2023-01-31T00:16:27;3.10;1.00
20400;DHT22;10359;53.596;22.520;2023-01-31T00:19:05;3.00;1.00
20400;DHT22;10359;53.596;22.520;2023-01-31T00:21:36;3.10;1.00
20400;DHT22;10359;53.596;22.520;2023-01-31T00:24:11;3.10;1.00
20400;DHT22;10359;53.596;22.520;2023-01-31T00:26:41;3.20;1.00
20400;DHT22;10359;53.596;22.520;2023-01-31T00:29:10;3.10;1.00
20400;DHT22;10359;53.596;22.520;2023-01-31T00:31:39;3.10;1.00
20400;DHT22;10359;53.596;22.520;2023-01-31T00:34:10;3.20;1.00
20400;DHT22;10359;53.596;22.520;2023-01-31T00:36:41;3.20;1.00
20400;DHT22;10359;53.596;22.520;2023-01-31T00:39:10;3.20;1.00
20400;DHT22;10359;53.596;22.520;2023-01-31T00:41:39;3.20;1.00
20400;DHT22;10359;53.596;22.520;2023-01-31T00:44:08;3.30;1.00
20400;DHT22;10359;53.596;22.520;2023-01-31T00:46:48;3.30;1.00
20400;DHT22;10359;53.596;22.520;2023-01-31T00:50:22;3.30;1.00
20400;DHT22;10359;53.596;22.520;2023-01-31T00:53:24;3.30;1.00
20400;DHT22;10359;53.596;22.520;2023-01-31T00:55:54;3.40;1.00
20400;DHT22;10359;53.596;22.520;2023-01-31T00:58:25;3.40;1.00
20400;DHT22;10359;53.596;22.520;2023-01-31T01:00:54;3.30;1.00
20400;DHT22;10359;53.596;22.520;2023-01-31T01:03:23;3.30;1.00
20400;DHT22;10359;53.596;22.520;2023-01-31T01:05:52;3.40;1.00
20400;DHT22;10359;53.596;22.520;2023-01-31T01:08:23;3.30;1.00
20400;DHT22;10359;53.596;22.520;2023-01-31T01:10:51;3.40;1.00
20400;DHT22;10359;53.596;22.520;2023-01-31T01:13:21;3.40;1.00
20400;DHT22;10359;53.596;22.520;2023-01-31T01:15:56;3.40;1.00
20400;DHT22;10359;53.596;22.520;2023-01-31T01:18:51;3.40;1.00
20400;DHT22;10359;53.596;22.520;2023-01-31T01:21:24;3.50;1.00
20400;DHT22;10359;53.596;22.520;2023-01-31T01:23:55;3.50;1.00
20400;DHT22;10359;53.596;22.520;2023-01-31T01:26:26;3.50;1.00
20400;DHT22;10359;53.596;22.520;2023-01-31T01:28:57;3.40;1.00
20400;DHT22;10359;53.596;22.520;2023-01-31T01:31:27;3.30;1.00
20400;DHT22;10359;53.596;22.520;2023-01-31T01:33:59;3.10;1.00
20400;DHT22;10359;53.596;22.520;2023-01-31T01:36:30;3.00;1.00
20400;DHT22;10359;53.596;22.520;2023-01-31T01:39:03;3.00;1.00
20400;DHT22;10359;53.596;22.520;2023-01-31T01:41:32;2.90;1.00
20400;DHT22;10359;53.596;22.520;2023-01-31T01:44:02;2.80;1.00
20400;DHT22;10359;53.596;22.520;2023-01-31T01:46:33;2.80;1.00
20400;DHT22;10359;53.596;22.520;2023-01-31T01:49:04;2.70;1.00
20400;DHT22;10359;53.596;22.520;2023-01-31T01:51:40;2.70;1.00
20400;DHT22;10359;53.596;22.520;2023-01-31T01:54:15;2.60;1.00
20400;DHT22;10359;53.596;22.520;2023-01-31T01:56:49;2.50;1.00
20400;DHT22;10359;53.596;22.520;2023-01-31T01:59:23;2.50;1.00
20400;DHT22;10359;53.596;22.520;2023-01-31T02:01:55;2.70;1.00
20400;DHT22;10359;53.596;22.520;2023-01-31T02:04:27;2.80;1.00
20400;DHT22;10359;53.596;22.520;2023-01-31T02:06:58;2.90;1.00
20400;DHT22;10359;53.596;22.520;2023-01-31T02:09:33;2.90;1.00
20400;DHT22;10359;53.596;22.520;2023-01-31T02:12:05;2.90;1.00
20400;DHT22;10359;53.596;22.520;2023-01-31T02:14:36;2.80;1.00
20400;DHT22;10359;53.596;22.520;2023-01-31T02:17:09;2.70;1.00
20400;DHT22;10359;53.596;22.520;2023-01-31T02:19:47;2.80;1.00
20400;DHT22;10359;53.596;22.520;2023-01-31T02:22:22;2.80;1.00
20400;DHT22;10359;53.596;22.520;2023-01-31T02:28:41;3.00;1.00
20400;DHT22;10359;53.596;22.520;2023-01-31T02:31:46;3.10;1.00
20400;DHT22;10359;53.596;22.520;2023-01-31T02:34:26;3.10;1.00
20400;DHT22;10359;53.596;22.520;2023-01-31T02:37:05;3.10;1.00
20400;DHT22;10359;53.596;22.520;2023-01-31T02:39:45;3.10;1.00
20400;DHT22;10359;53.596;22.520;2023-01-31T02:42:23;3.10;1.00
20400;DHT22;10359;53.596;22.520;2023-01-31T02:45:09;3.20;1.00
20400;DHT22;10359;53.596;22.520;2023-01-31T02:48:00;3.20;1.00
20400;DHT22;10359;53.596;22.520;2023-01-31T02:50:41;3.20;1.00
20400;DHT22;10359;53.596;22.520;2023-01-31T02:53:18;3.20;1.00
20400;DHT22;10359;53.596;22.520;2023-01-31T02:55:54;3.20;1.00
20400;DHT22;10359;53.596;22.520;2023-01-31T02:58:44;3.20;1.00
20400;DHT22;10359;53.596;22.520;2023-01-31T03:01:18;3.10;1.00
20400;DHT22;10359;53.596;22.520;2023-01-31T03:03:50;3.10;1.00
20400;DHT22;10359;53.596;22.520;2023-01-31T03:06:59;3.10;1.00
20400;DHT22;10359;53.596;22.520;2023-01-31T03:09:36;3.30;1.00
20400;DHT22;10359;53.596;22.520;2023-01-31T03:15:31;3.40;1.00
20400;DHT22;10359;53.596;22.520;2023-01-31T03:18:21;3.40;1.00
20400;DHT22;10359;53.596;22.520;2023-01-31T03:20:57;3.30;1.00
20400;DHT22;10359;53.596;22.520;2023-01-31T03:23:31;3.20;1.00
20400;DHT22;10359;53.596;22.520;2023-01-31T03:26:05;3.20;1.00
20400;DHT22;10359;53.596;22.520;2023-01-31T03:28:36;3.20;1.00
20400;DHT22;10359;53.596;22.520;2023-01-31T03:31:13;3.20;1.00
20400;DHT22;10359;53.596;22.520;2023-01-31T03:33:48;3.20;1.00
20400;DHT22;10359;53.596;22.520;2023-01-31T03:36:26;3.30;1.00
20400;DHT22;10359;53.596;22.520;2023-01-31T03:39:07;3.30;1.00
20400;DHT22;10359;53.596;22.520;2023-01-31T03:41:45;3.40;1.00
20400;DHT22;10359;53.596;22.520;2023-01-31T03:44:20;3.40;1.00
20400;DHT22;10359;53.596;22.520;2023-01-31T03:46:54;3.50;1.00
20400;DHT22;10359;53.596;22.520;2023-01-31T03:49:26;3.50;1.00
20400;DHT22;10359;53.596;22.520;2023-01-31T03:52:00;3.50;1.00
20400;DHT22;10359;53.596;22.520;2023-01-31T03:54:36;3.40;1.00
20400;DHT22;10359;53.596;22.520;2023-01-31T03:57:12;3.30;1.00
20400;DHT22;10359;53.596;22.520;2023-01-31T03:59:45;3.30;1.00
20400;DHT22;10359;53.596;22.520;2023-01-31T04:02:16;3.20;1.00
20400;DHT22;10359;53.596;22.520;2023-01-31T04:04:49;3.20;1.00
20400;DHT22;10359;53.596;22.520;2023-01-31T04:07:20;3.20;1.00
20400;DHT22;10359;53.596;22.520;2023-01-31T04:09:51;3.20;1.00
20400;DHT22;10359;53.596;22.520;2023-01-31T04:12:20;3.20;1.00
20400;DHT22;10359;53.596;22.520;2023-01-31T04:14:49;3.20;1.00
20400;DHT22;10359;53.596;22.520;2023-01-31T04:17:19;3.10;1.00
20400;DHT22;10359;53.596;22.520;2023-01-31T04:19:48;3.20;1.00
20400;DHT22;10359;53.596;22.520;2023-01-31T04:22:18;3.10;1.00
20400;DHT22;10359;53.596;22.520;2023-01-31T04:24:47;2.90;1.00
20400;DHT22;10359;53.596;22.520;2023-01-31T04:27:17;2.80;1.00
20400;DHT22;10359;53.596;22.520;2023-01-31T04:29:46;2.80;1.00
20400;DHT22;10359;53.596;22.520;2023-01-31T04:32:16;2.60;1.00
20400;DHT22;10359;53.596;22.520;2023-01-31T04:34:45;2.40;1.00
20400;DHT22;10359;53.596;22.520;2023-01-31T04:37:14;2.30;1.00
20400;DHT22;10359;53.596;22.520;2023-01-31T04:39:44;2.20;1.00
20400;DHT22;10359;53.596;22.520;2023-01-31T04:42:14;2.10;1.00
20400;DHT22;10359;53.596;22.520;2023-01-31T04:44:45;2.00;1.00
20400;DHT22;10359;53.596;22.520;2023-01-31T04:47:14;1.90;1.00
20400;DHT22;10359;53.596;22.520;2023-01-31T04:49:43;1.90;1.00
20400;DHT22;10359;53.596;22.520;2023-01-31T04:52:13;1.80;1.00
20400;DHT22;10359;53.596;22.520;2023-01-31T04:54:42;1.80;1.00
20400;DHT22;10359;53.596;22.520;2023-01-31T04:57:11;1.70;1.00
20400;DHT22;10359;53.596;22.520;2023-01-31T04:59:40;1.70;1.00
20400;DHT22;10359;53.596;22.520;2023-01-31T05:02:10;1.70;1.00
20400;DHT22;10359;53.596;22.520;2023-01-31T05:04:42;1.70;1.00
20400;DHT22;10359;53.596;22.520;2023-01-31T05:07:11;1.70;1.00
20400;DHT22;10359;53.596;22.520;2023-01-31T05:09:40;1.60;1.00
20400;DHT22;10359;53.596;22.520;2023-01-31T05:12:10;1.50;1.00
20400;DHT22;10359;53.596;22.520;2023-01-31T05:14:39;1.50;1.00
20400;DHT22;10359;53.596;22.520;2023-01-31T05:17:10;1.40;1.00
20400;DHT22;10359;53.596;22.520;2023-01-31T05:19:39;1.40;1.00
20400;DHT22;10359;53.596;22.520;2023-01-31T05:22:10;1.50;1.00
20400;DHT22;10359;53.596;22.520;2023-01-31T05:24:39;1.40;1.00
20400;DHT22;10359;53.596;22.520;2023-01-31T05:27:09;1.50;1.00
20400;DHT22;10359;53.596;22.520;2023-01-31T05:29:39;1.60;1.00
20400;DHT22;10359;53.596;22.520;2023-01-31T05:32:11;1.60;1.00
20400;DHT22;10359;53.596;22.520;2023-01-31T05:34:40;1.70;1.00
20400;DHT22;10359;53.596;22.520;2023-01-31T05:37:10;1.80;1.00
20400;DHT22;10359;53.596;22.520;2023-01-31T05:39:39;1.80;1.00
20400;DHT22;10359;53.596;22.520;2023-01-31T05:42:08;1.80;1.00
20400;DHT22;10359;53.596;22.520;2023-01-31T05:44:37;1.80;1.00
20400;DHT22;10359;53.596;22.520;2023-01-31T05:47:06;1.80;1.00
20400;DHT22;10359;53.596;22.520;2023-01-31T05:49:36;1.90;1.00
20400;DHT22;10359;53.596;22.520;2023-01-31T05:52:06;1.90;1.00
20400;DHT22;10359;53.596;22.520;2023-01-31T05:54:35;2.00;1.00
20400;DHT22;10359;53.596;22.520;2023-01-31T05:57:04;2.10;1.00
20400;DHT22;10359;53.596;22.520;2023-01-31T05:59:34;2.30;1.00
20400;DHT22;10359;53.596;22.520;2023-01-31T06:02:03;2.40;1.00
20400;DHT22;10359;53.596;22.520;2023-01-31T06:04:32;2.60;1.00
20400;DHT22;10359;53.596;22.520;2023-01-31T06:07:02;2.60;1.00
20400;DHT22;10359;53.596;22.520;2023-01-31T06:09:31;2.70;1.00
20400;DHT22;10359;53.596;22.520;2023-01-31T06:12:00;2.80;1.00
20400;DHT22;10359;53.596;22.520;2023-01-31T06:14:30;2.90;1.00
20400;DHT22;10359;53.596;22.520;2023-01-31T06:16:59;2.90;1.00
20400;DHT22;10359;53.596;22.520;2023-01-31T06:19:34;2.90;1.00
20400;DHT22;10359;53.596;22.520;2023-01-31T06:22:06;2.90;1.00
20400;DHT22;10359;53.596;22.520;2023-01-31T06:24:35;2.90;1.00
20400;DHT22;10359;53.596;22.520;2023-01-31T06:27:04;2.90;1.00
20400;DHT22;10359;53.596;22.520;2023-01-31T06:29:33;2.70;1.00
20400;DHT22;10359;53.596;22.520;2023-01-31T06:32:03;2.70;1.00
20400;DHT22;10359;53.596;22.520;2023-01-31T06:34:32;2.70;1.00
20400;DHT22;10359;53.596;22.520;2023-01-31T06:37:01;2.50;1.00
20400;DHT22;10359;53.596;22.520;2023-01-31T06:39:33;2.40;1.00
20400;DHT22;10359;53.596;22.520;2023-01-31T06:42:03;2.40;1.00
20400;DHT22;10359;53.596;22.520;2023-01-31T06:44:32;2.50;1.00
20400;DHT22;10359;53.596;22.520;2023-01-31T06:47:01;2.50;1.00
20400;DHT22;10359;53.596;22.520;2023-01-31T06:49:30;2.50;1.00
20400;DHT22;10359;53.596;22.520;2023-01-31T06:52:03;2.50;1.00
20400;DHT22;10359;53.596;22.520;2023-01-31T06:54:34;2.50;1.00
20400;DHT22;10359;53.596;22.520;2023-01-31T06:57:03;2.40;1.00
20400;DHT22;10359;53.596;22.520;2023-01-31T06:59:32;2.30;1.00
20400;DHT22;10359;53.596;22.520;2023-01-31T07:02:03;2.30;1.00
20400;DHT22;10359;53.596;22.520;2023-01-31T07:04:34;2.40;1.00
20400;DHT22;10359;53.596;22.520;2023-01-31T07:07:03;2.50;1.00
20400;DHT22;10359;53.596;22.520;2023-01-31T07:09:34;2.60;1.00
20400;DHT22;10359;53.596;22.520;2023-01-31T07:12:03;2.80;1.00
20400;DHT22;10359;53.596;22.520;2023-01-31T07:14:33;2.90;1.00
20400;DHT22;10359;53.596;22.520;2023-01-31T07:17:02;3.00;1.00
20400;DHT22;10359;53.596;22.520;2023-01-31T07:19:31;3.10;1.00
20400;DHT22;10359;53.596;22.520;2023-01-31T07:22:00;3.10;1.00
20400;DHT22;10359;53.596;22.520;2023-01-31T07:24:29;3.20;1.00
20400;DHT22;10359;53.596;22.520;2023-01-31T07:27:01;3.20;1.00
20400;DHT22;10359;53.596;22.520;2023-01-31T07:29:30;3.30;1.00
20400;DHT22;10359;53.596;22.520;2023-01-31T07:31:59;3.30;1.00
20400;DHT22;10359;53.596;22.520;2023-01-31T07:34:29;3.40;1.00
20400;DHT22;10359;53.596;22.520;2023-01-31T07:36:59;3.40;1.00
20400;DHT22;10359;53.596;22.520;2023-01-31T07:39:28;3.40;1.00
20400;DHT22;10359;53.596;22.520;2023-01-31T07:41:59;3.60;1.00
20400;DHT22;10359;53.596;22.520;2023-01-31T07:44:29;3.60;1.00
20400;DHT22;10359;53.596;22.520;2023-01-31T07:46:58;3.50;1.00
20400;DHT22;10359;53.596;22.520;2023-01-31T07:49:27;3.60;1.00
20400;DHT22;10359;53.596;22.520;2023-01-31T07:51:57;3.70;1.00
20400;DHT22;10359;53.596;22.520;2023-01-31T07:54:27;3.70;1.00
20400;DHT22;10359;53.596;22.520;2023-01-31T07:56:56;3.80;1.00
20400;DHT22;10359;53.596;22.520;2023-01-31T07:59:27;3.90;1.00
20400;DHT22;10359;53.596;22.520;2023-01-31T08:01:56;3.90;1.00
20400;DHT22;10359;53.596;22.520;2023-01-31T08:04:43;4.00;1.00
20400;DHT22;10359;53.596;22.520;2023-01-31T08:07:14;4.00;1.00
20400;DHT22;10359;53.596;22.520;2023-01-31T08:09:43;4.00;1.00
20400;DHT22;10359;53.596;22.520;2023-01-31T08:12:17;4.00;1.00
20400;DHT22;10359;53.596;22.520;2023-01-31T08:14:48;4.00;1.00
20400;DHT22;10359;53.596;22.520;2023-01-31T08:17:21;4.00;1.00
20400;DHT22;10359;53.596;22.520;2023-01-31T08:19:52;4.00;1.00
20400;DHT22;10359;53.596;22.520;2023-01-31T08:22:22;4.00;1.00
20400;DHT22;10359;53.596;22.520;2023-01-31T08:24:52;3.90;1.00
20400;DHT22;10359;53.596;22.520;2023-01-31T08:27:21;4.00;99.90
20400;DHT22;10359;53.596;22.520;2023-01-31T08:29:53;4.10;99.90
20400;DHT22;10359;53.596;22.520;2023-01-31T08:32:24;4.20;99.90
20400;DHT22;10359;53.596;22.520;2023-01-31T08:34:53;4.40;99.90
20400;DHT22;10359;53.596;22.520;2023-01-31T08:37:23;4.30;99.90
20400;DHT22;10359;53.596;22.520;2023-01-31T08:39:55;4.40;99.90
20400;DHT22;10359;53.596;22.520;2023-01-31T08:42:24;4.50;99.90
20400;DHT22;10359;53.596;22.520;2023-01-31T08:44:55;4.50;99.90
20400;DHT22;10359;53.596;22.520;2023-01-31T08:47:26;4.40;99.90
20400;DHT22;10359;53.596;22.520;2023-01-31T08:49:55;4.50;99.90
20400;DHT22;10359;53.596;22.520;2023-01-31T08:52:25;4.50;99.90
20400;DHT22;10359;53.596;22.520;2023-01-31T08:54:57;4.50;99.90
20400;DHT22;10359;53.596;22.520;2023-01-31T08:57:26;4.60;99.90
20400;DHT22;10359;53.596;22.520;2023-01-31T08:59:58;4.80;99.90
20400;DHT22;10359;53.596;22.520;2023-01-31T09:02:30;5.00;99.90
20400;DHT22;10359;53.596;22.520;2023-01-31T09:05:00;5.00;99.90
20400;DHT22;10359;53.596;22.520;2023-01-31T09:07:32;4.90;99.90
20400;DHT22;10359;53.596;22.520;2023-01-31T09:10:02;5.10;99.90
20400;DHT22;10359;53.596;22.520;2023-01-31T09:12:34;5.20;99.90
20400;DHT22;10359;53.596;22.520;2023-01-31T09:15:10;5.10;99.90
20400;DHT22;10359;53.596;22.520;2023-01-31T09:17:46;5.20;99.90
20400;DHT22;10359;53.596;22.520;2023-01-31T09:20:16;5.30;99.90
20400;DHT22;10359;53.596;22.520;2023-01-31T09:22:45;5.30;99.90
20400;DHT22;10359;53.596;22.520;2023-01-31T09:25:18;5.30;99.90
20400;DHT22;10359;53.596;22.520;2023-01-31T09:28:07;5.40;99.90
20400;DHT22;10359;53.596;22.520;2023-01-31T09:31:01;5.50;99.90
20400;DHT22;10359;53.596;22.520;2023-01-31T09:33:32;5.10;99.90
20400;DHT22;10359;53.596;22.520;2023-01-31T09:36:06;5.10;99.90
20400;DHT22;10359;53.596;22.520;2023-01-31T09:38:39;4.90;99.90
20400;DHT22;10359;53.596;22.520;2023-01-31T09:41:15;4.70;99.90
20400;DHT22;10359;53.596;22.520;2023-01-31T09:43:54;4.40;99.90
20400;DHT22;10359;53.596;22.520;2023-01-31T09:46:32;4.20;99.90
20400;DHT22;10359;53.596;22.520;2023-01-31T09:49:07;4.20;99.90
20400;DHT22;10359;53.596;22.520;2023-01-31T09:51:43;4.40;99.90
20400;DHT22;10359;53.596;22.520;2023-01-31T09:54:22;4.70;99.90
20400;DHT22;10359;53.596;22.520;2023-01-31T09:57:01;4.90;99.90
20400;DHT22;10359;53.596;22.520;2023-01-31T09:59:43;5.20;99.90
20400;DHT22;10359;53.596;22.520;2023-01-31T10:02:50;5.30;99.90
20400;DHT22;10359;53.596;22.520;2023-01-31T10:05:29;5.40;99.90
20400;DHT22;10359;53.596;22.520;2023-01-31T10:08:09;5.60;99.90
20400;DHT22;10359;53.596;22.520;2023-01-31T10:10:51;5.60;99.90
20400;DHT22;10359;53.596;22.520;2023-01-31T10:13:25;5.60;99.90
20400;DHT22;10359;53.596;22.520;2023-01-31T10:16:03;5.60;99.90
20400;DHT22;10359;53.596;22.520;2023-01-31T10:18:39;5.60;99.90
20400;DHT22;10359;53.596;22.520;2023-01-31T10:21:16;5.40;99.90
20400;DHT22;10359;53.596;22.520;2023-01-31T10:23:56;5.50;99.90
20400;DHT22;10359;53.596;22.520;2023-01-31T10:26:30;5.40;99.90
20400;DHT22;10359;53.596;22.520;2023-01-31T10:29:11;5.40;99.90
20400;DHT22;10359;53.596;22.520;2023-01-31T10:31:45;5.30;99.90
20400;DHT22;10359;53.596;22.520;2023-01-31T10:34:23;5.30;99.90
20400;DHT22;10359;53.596;22.520;2023-01-31T10:37:00;5.30;99.90
20400;DHT22;10359;53.596;22.520;2023-01-31T10:39:35;5.10;99.90
20400;DHT22;10359;53.596;22.520;2023-01-31T10:42:14;5.20;99.90
20400;DHT22;10359;53.596;22.520;2023-01-31T10:44:51;5.20;99.90
20400;DHT22;10359;53.596;22.520;2023-01-31T10:47:29;5.10;99.90
20400;DHT22;10359;53.596;22.520;2023-01-31T10:50:04;5.20;99.90
20400;DHT22;10359;53.596;22.520;2023-01-31T10:52:57;5.20;99.90
20400;DHT22;10359;53.596;22.520;2023-01-31T10:55:41;5.50;99.90
20400;DHT22;10359;53.596;22.520;2023-01-31T10:58:16;5.70;99.90
20400;DHT22;10359;53.596;22.520;2023-01-31T11:00:45;5.80;99.90
20400;DHT22;10359;53.596;22.520;2023-01-31T11:03:20;5.70;99.90
20400;DHT22;10359;53.596;22.520;2023-01-31T11:05:53;5.70;99.90
20400;DHT22;10359;53.596;22.520;2023-01-31T11:08:30;5.70;99.90
20400;DHT22;10359;53.596;22.520;2023-01-31T11:11:06;5.70;99.90
20400;DHT22;10359;53.596;22.520;2023-01-31T11:13:38;5.80;99.90
20400;DHT22;10359;53.596;22.520;2023-01-31T11:16:10;5.70;99.90
20400;DHT22;10359;53.596;22.520;2023-01-31T11:18:45;5.50;99.90
20400;DHT22;10359;53.596;22.520;2023-01-31T11:21:22;5.40;99.90
20400;DHT22;10359;53.596;22.520;2023-01-31T11:24:00;5.40;99.90
20400;DHT22;10359;53.596;22.520;2023-01-31T11:26:39;5.50;99.90
20400;DHT22;10359;53.596;22.520;2023-01-31T11:29:17;5.50;99.90
20400;DHT22;10359;53.596;22.520;2023-01-31T11:31:49;5.40;99.90
20400;DHT22;10359;53.596;22.520;2023-01-31T11:34:23;5.50;99.90
20400;DHT22;10359;53.596;22.520;2023-01-31T11:37:05;5.50;99.90
20400;DHT22;10359;53.596;22.520;2023-01-31T11:39:36;5.50;99.90
20400;DHT22;10359;53.596;22.520;2023-01-31T11:42:11;5.60;99.90
20400;DHT22;10359;53.596;22.520;2023-01-31T11:44:56;5.70;99.90
20400;DHT22;10359;53.596;22.520;2023-01-31T11:47:32;5.80;99.90
20400;DHT22;10359;53.596;22.520;2023-01-31T11:50:04;5.80;99.90
20400;DHT22;10359;53.596;22.520;2023-01-31T11:52:37;5.80;99.90
20400;DHT22;10359;53.596;22.520;2023-01-31T11:55:08;5.50;99.90
20400;DHT22;10359;53.596;22.520;2023-01-31T11:57:42;5.40;99.90
20400;DHT22;10359;53.596;22.520;2023-01-31T12:00:21;5.60;99.90
20400;DHT22;10359;53.596;22.520;2023-01-31T12:03:00;5.40;99.90
20400;DHT22;10359;53.596;22.520;2023-01-31T12:05:36;5.60;99.90
20400;DHT22;10359;53.596;22.520;2023-01-31T12:08:28;5.30;99.90
20400;DHT22;10359;53.596;22.520;2023-01-31T12:10:58;5.10;99.90
20400;DHT22;10359;53.596;22.520;2023-01-31T12:13:28;5.10;99.90
20400;DHT22;10359;53.596;22.520;2023-01-31T12:16:01;5.00;99.90
20400;DHT22;10359;53.596;22.520;2023-01-31T12:18:49;5.00;99.90
20400;DHT22;10359;53.596;22.520;2023-01-31T12:21:34;5.00;99.90
20400;DHT22;10359;53.596;22.520;2023-01-31T12:24:18;5.10;99.90
20400;DHT22;10359;53.596;22.520;2023-01-31T12:26:56;5.30;99.90
20400;DHT22;10359;53.596;22.520;2023-01-31T12:29:54;5.20;99.90
20400;DHT22;10359;53.596;22.520;2023-01-31T12:32:41;5.20;99.90
20400;DHT22;10359;53.596;22.520;2023-01-31T12:35:28;5.50;99.90
20400;DHT22;10359;53.596;22.520;2023-01-31T12:38:12;5.40;99.90
20400;DHT22;10359;53.596;22.520;2023-01-31T12:40:51;5.20;99.90
20400;DHT22;10359;53.596;22.520;2023-01-31T12:43:46;5.30;99.90
20400;DHT22;10359;53.596;22.520;2023-01-31T12:46:29;5.10;99.90
20400;DHT22;10359;53.596;22.520;2023-01-31T12:49:26;5.20;99.90
20400;DHT22;10359;53.596;22.520;2023-01-31T12:52:02;5.10;99.90
20400;DHT22;10359;53.596;22.520;2023-01-31T12:54:57;5.20;99.90
20400;DHT22;10359;53.596;22.520;2023-01-31T12:57:38;5.30;99.90
20400;DHT22;10359;53.596;22.520;2023-01-31T13:00:25;5.30;99.90
20400;DHT22;10359;53.596;22.520;2023-01-31T13:03:12;5.20;99.90
20400;DHT22;10359;53.596;22.520;2023-01-31T13:05:49;5.20;99.90
20400;DHT22;10359;53.596;22.520;2023-01-31T13:08:21;5.20;99.90
20400;DHT22;10359;53.596;22.520;2023-01-31T13:10:57;5.30;99.90
20400;DHT22;10359;53.596;22.520;2023-01-31T13:13:35;5.30;99.90
20400;DHT22;10359;53.596;22.520;2023-01-31T13:16:12;5.20;99.90
20400;DHT22;10359;53.596;22.520;2023-01-31T13:18:47;5.10;99.90
20400;DHT22;10359;53.596;22.520;2023-01-31T13:21:21;5.10;99.90
20400;DHT22;10359;53.596;22.520;2023-01-31T13:23:57;5.10;99.90
20400;DHT22;10359;53.596;22.520;2023-01-31T13:26:32;5.20;99.90
20400;DHT22;10359;53.596;22.520;2023-01-31T13:29:06;5.20;99.90
20400;DHT22;10359;53.596;22.520;2023-01-31T13:31:43;5.10;99.90
20400;DHT22;10359;53.596;22.520;2023-01-31T13:34:19;5.10;99.90
20400;DHT22;10359;53.596;22.520;2023-01-31T13:36:54;5.10;99.90
20400;DHT22;10359;53.596;22.520;2023-01-31T13:39:29;4.90;99.90
20400;DHT22;10359;53.596;22.520;2023-01-31T13:42:01;4.80;99.90
20400;DHT22;10359;53.596;22.520;2023-01-31T13:44:36;4.80;99.90
20400;DHT22;10359;53.596;22.520;2023-01-31T13:47:15;4.60;99.90
20400;DHT22;10359;53.596;22.520;2023-01-31T13:49:50;4.70;99.90
20400;DHT22;10359;53.596;22.520;2023-01-31T13:52:24;4.70;99.90
20400;DHT22;10359;53.596;22.520;2023-01-31T13:54:57;4.50;99.90
20400;DHT22;10359;53.596;22.520;2023-01-31T13:57:31;4.60;99.90
20400;DHT22;10359;53.596;22.520;2023-01-31T14:00:08;4.50;99.90
20400;DHT22;10359;53.596;22.520;2023-01-31T14:02:38;4.40;99.90
20400;DHT22;10359;53.596;22.520;2023-01-31T14:08:30;4.20;99.90
20400;DHT22;10359;53.596;22.520;2023-01-31T14:11:02;4.10;99.90
20400;DHT22;10359;53.596;22.520;2023-01-31T14:13:41;4.10;99.90
20400;DHT22;10359;53.596;22.520;2023-01-31T14:16:43;4.00;99.90
20400;DHT22;10359;53.596;22.520;2023-01-31T14:22:20;4.20;99.90
20400;DHT22;10359;53.596;22.520;2023-01-31T14:24:56;4.10;99.90
20400;DHT22;10359;53.596;22.520;2023-01-31T14:27:40;4.10;99.90
20400;DHT22;10359;53.596;22.520;2023-01-31T14:30:30;4.10;99.90
20400;DHT22;10359;53.596;22.520;2023-01-31T14:33:20;4.10;99.90
20400;DHT22;10359;53.596;22.520;2023-01-31T14:39:41;3.90;99.90
20400;DHT22;10359;53.596;22.520;2023-01-31T14:42:49;3.90;99.90
20400;DHT22;10359;53.596;22.520;2023-01-31T14:46:05;3.90;99.90
20400;DHT22;10359;53.596;22.520;2023-01-31T14:49:00;3.90;99.90
20400;DHT22;10359;53.596;22.520;2023-01-31T14:51:44;3.80;99.90
20400;DHT22;10359;53.596;22.520;2023-01-31T14:54:47;3.70;99.90
20400;DHT22;10359;53.596;22.520;2023-01-31T14:57:23;3.70;99.90
20400;DHT22;10359;53.596;22.520;2023-01-31T14:59:56;3.60;99.90
20400;DHT22;10359;53.596;22.520;2023-01-31T15:02:43;3.60;99.90
20400;DHT22;10359;53.596;22.520;2023-01-31T15:05:24;3.60;99.90
20400;DHT22;10359;53.596;22.520;2023-01-31T15:11:38;3.60;99.90
20400;DHT22;10359;53.596;22.520;2023-01-31T15:14:30;3.60;99.90
20400;DHT22;10359;53.596;22.520;2023-01-31T15:17:06;3.50;99.90
20400;DHT22;10359;53.596;22.520;2023-01-31T15:20:05;3.40;99.90
20400;DHT22;10359;53.596;22.520;2023-01-31T15:22:44;3.30;99.90
20400;DHT22;10359;53.596;22.520;2023-01-31T15:25:22;3.20;99.90
20400;DHT22;10359;53.596;22.520;2023-01-31T15:27:56;3.20;99.90
20400;DHT22;10359;53.596;22.520;2023-01-31T15:30:32;3.10;99.90
20400;DHT22;10359;53.596;22.520;2023-01-31T15:33:11;3.20;99.90
20400;DHT22;10359;53.596;22.520;2023-01-31T15:35:47;3.10;99.90
20400;DHT22;10359;53.596;22.520;2023-01-31T15:38:28;3.00;99.90
20400;DHT22;10359;53.596;22.520;2023-01-31T15:41:15;2.90;99.90
20400;DHT22;10359;53.596;22.520;2023-01-31T15:43:47;2.80;99.90
20400;DHT22;10359;53.596;22.520;2023-01-31T15:46:23;2.60;99.90
20400;DHT22;10359;53.596;22.520;2023-01-31T15:48:53;2.60;99.90
20400;DHT22;10359;53.596;22.520;2023-01-31T15:51:25;2.50;99.90
20400;DHT22;10359;53.596;22.520;2023-01-31T15:54:14;2.40;99.90
20400;DHT22;10359;53.596;22.520;2023-01-31T15:56:44;2.30;99.90
20400;DHT22;10359;53.596;22.520;2023-01-31T15:59:13;2.20;99.90
20400;DHT22;10359;53.596;22.520;2023-01-31T16:01:49;2.10;99.90
20400;DHT22;10359;53.596;22.520;2023-01-31T16:04:23;2.00;99.90
20400;DHT22;10359;53.596;22.520;2023-01-31T16:06:54;1.90;99.90
20400;DHT22;10359;53.596;22.520;2023-01-31T16:09:29;1.80;99.90
20400;DHT22;10359;53.596;22.520;2023-01-31T16:12:01;1.70;99.90
20400;DHT22;10359;53.596;22.520;2023-01-31T16:14:37;1.60;99.90
20400;DHT22;10359;53.596;22.520;2023-01-31T16:17:10;1.50;99.90
20400;DHT22;10359;53.596;22.520;2023-01-31T16:19:41;1.30;99.90
20400;DHT22;10359;53.596;22.520;2023-01-31T16:22:29;1.20;99.90
20400;DHT22;10359;53.596;22.520;2023-01-31T16:25:04;1.20;1.00
20400;DHT22;10359;53.596;22.520;2023-01-31T16:27:37;1.00;1.00
20400;DHT22;10359;53.596;22.520;2023-01-31T16:30:21;1.00;1.00
20400;DHT22;10359;53.596;22.520;2023-01-31T16:32:52;0.90;1.00
20400;DHT22;10359;53.596;22.520;2023-01-31T16:35:32;0.90;1.00
20400;DHT22;10359;53.596;22.520;2023-01-31T16:38:15;0.80;1.00
20400;DHT22;10359;53.596;22.520;2023-01-31T16:40:52;0.80;1.00
20400;DHT22;10359;53.596;22.520;2023-01-31T16:43:27;0.70;1.00
20400;DHT22;10359;53.596;22.520;2023-01-31T16:46:02;0.70;1.00
20400;DHT22;10359;53.596;22.520;2023-01-31T16:48:37;0.70;1.00
20400;DHT22;10359;53.596;22.520;2023-01-31T16:51:40;0.70;1.00